Nathaniel B. Palmer — WBP3210 — position and weather

sailwx.info

Track history (hours):
 
Tides and Currents Weather Stations Pressure Air Temp Water Temp Dewpoint Dewpoint Depression Visibility Wind Speed Wind Dir Waves Ship Positions

Oceanographic research ship Nathaniel B. Palmer (USA)

Contact: Ethan Norris, ethan.norris.contractor@usap.gov

Detailed information on ship capabilities available from University of Delaware's Ocean Information Center and ARCUS's ALIAS (Arctic Logistics Information and Support) project.

Owner: OFFSHORE SERVICE VESSELS, GALLIANO, LA. More information available from US FCC via Universal Licensing System and Coast Guard Vessel Documentation Center.

Last reported at 2016-Aug-27 14:00 UTC. Time now 2016-Aug-27 15:13 UTC.
Position S 62°06' W 062°30'.

Type: Other ship. MMSI: 366610000.

Wind at 10 knots

Barometer 1009.9 mb
Air temperature -4.4 ° C
Water temperature -1.8 ° C

Date/timePositionNaut miles runAvg speedWind from/ knotsBaromVisibWave heightAir tempDewpointWater temp
2016-Aug-27 14:00S 62°06' W 062°30'7 6.6 1009.9 -4.4 -1.8
2016-Aug-27 13:00S 62°12' W 062°24'6 6.0 010 / 101010.0 -5.2 -1.7
2016-Aug-27 12:00S 62°18' W 062°24'1212.3 010 / 81010.3 -5.2 -1.7
2016-Aug-27 11:00S 62°30' W 062°18'7 6.6 160 / 111010.5 -5.5 -1.7
2016-Aug-27 10:00S 62°36' W 062°12'7 6.6 190 / 81010.5 -6.2 -1.7
2016-Aug-27 09:00S 62°42' W 062°06'8 8.1 130 / 71010.6 -6.4 -1.7
2016-Aug-27 08:00S 62°48' W 061°54'5 5.5 310 / 101010.4 -6.6 -1.7
2016-Aug-27 07:00S 62°48' W 061°42'8 8.1 310 / 141010.3 -6.2 -1.6
2016-Aug-27 06:00S 62°54' W 061°30'8 8.2 320 / 111010.1 -6.0 -1.7
2016-Aug-27 05:00S 62°54' W 061°12'1010.2 280 / 121009.7 -5.4 -1.7
2016-Aug-27 04:00S 62°48' W 060°54'8 8.1 270 / 111009.5 -5.3 -1.7
2016-Aug-27 03:00S 62°42' W 060°42'0 0.0 260 / 121009.2 -4.8 -1.6
2016-Aug-27 02:00S 62°42' W 060°42'6 5.5 250 / 151008.8 -4.7 -1.6
2016-Aug-27 01:00S 62°42' W 060°30'8 8.1 260 / 231007.2 -4.4 -1.6
2016-Aug-27 00:00S 62°48' W 060°18'8 8.1 260 / 221006.2 -3.7 -1.6
2016-Aug-26 23:00S 62°54' W 060°06'5 5.5 240 / 161006.8 -3.6 -1.8
2016-Aug-26 22:00S 62°54' W 059°54'0 0.0 260 / 291005.8 -3.4 -1.6
2016-Aug-26 21:00S 62°54' W 059°54'7 6.6 250 / 241005.6 -3.3 -1.7
2016-Aug-26 20:00S 63°00' W 059°48'7 6.6 250 / 281003.4 -3.4 -1.7
2016-Aug-26 19:00S 63°06' W 059°42'8 8.1 240 / 211003.2 -3.7 -1.7
2016-Aug-26 18:00S 63°12' W 059°30'3 2.7 250 / 301001.9 -3.9 -1.7
2016-Aug-26 17:00S 63°12' W 059°24'3 2.7 250 / 261001.9 -3.9 -1.7
2016-Aug-26 16:00S 63°12' W 059°30'6 6.0 250 / 231001.9 -4.8 -1.8
2016-Aug-26 15:00S 63°06' W 059°30'1212.3 250 / 251001.8 -5.4 -1.6
2016-Aug-26 14:00S 62°54' W 059°36'6 6.0 260 / 211002.0 -5.8 -1.7
2016-Aug-26 13:00S 62°48' W 059°36'6 6.0 250 / 211001.5 -4.6 -1.7
2016-Aug-26 12:00S 62°42' W 059°36'6 6.0 250 / 191000.9 -3.3 -1.7
2016-Aug-26 11:00S 62°36' W 059°36'3 2.8 270 / 121000.5 -2.7 -1.6
2016-Aug-26 10:00S 62°36' W 059°42'0 0.0 310 / 71000.3 -3.0 -1.6
2016-Aug-26 09:00S 62°36' W 059°42'8 8.1 290 / 11999.8 -3.3 -1.7
2016-Aug-26 08:00S 62°42' W 059°30'7 6.6 320 / 15999.6 -3.6 -1.7
2016-Aug-26 07:00S 62°48' W 059°24'5 5.5 330 / 111000.2 -4.4 -1.7
2016-Aug-26 06:00S 62°48' W 059°12'8 8.1 300 / 61000.9 -4.6 -1.8
2016-Aug-26 05:00S 62°54' W 059°00'7 6.6 290 / 61001.3 -5.0 -1.8
2016-Aug-26 04:00S 63°00' W 058°54'0 0.0 250 / 71001.8 -5.9 -1.7
2016-Aug-26 03:00S 63°00' W 058°54'3 2.7 250 / 81002.0 -6.1 -1.8
2016-Aug-26 02:00S 63°00' W 058°48'5 5.4 250 / 141001.8 -6.7 -1.8
2016-Aug-26 01:00S 63°00' W 058°36'7 6.6 250 / 151002.1 -7.0 -1.8
2016-Aug-26 00:00S 63°06' W 058°30'3 2.7 260 / 161002.7 -7.3 -1.8
2016-Aug-25 23:00S 63°06' W 058°24'7 6.6 250 / 141003.2 -7.2 -1.8
2016-Aug-25 22:00S 63°00' W 058°18'5 5.4 260 / 161003.3 -7.2 -1.8
2016-Aug-25 21:00S 63°00' W 058°06'5 5.4 250 / 141003.2 -7.1 -1.8
2016-Aug-25 20:00S 63°00' W 057°54'6 6.0 260 / 141003.5 -7.1 -1.8
2016-Aug-25 19:00S 62°54' W 057°54'3 2.7 250 / 141003.8 -7.3 -1.8
2016-Aug-25 18:00S 62°54' W 058°00'8 8.1 250 / 141003.9 -6.9 -1.8
2016-Aug-25 17:00S 62°48' W 058°12'8 8.1 250 / 101004.5 -6.8 -1.8
2016-Aug-25 16:00S 62°42' W 058°24'0 0.0 250 / 81004.9 -6.9 -1.8
2016-Aug-25 15:00S 62°42' W 058°24'3 2.8 250 / 71005.3 -7.0 -1.7
2016-Aug-25 14:00S 62°42' W 058°30'7 6.6 240 / 81005.6 -7.3 -1.7
2016-Aug-25 13:00S 62°36' W 058°36'8 8.2 220 / 81005.7 -7.1 -1.7
2016-Aug-25 12:00S 62°30' W 058°48'6 5.5 220 / 81006.0 -6.7 -1.8
2016-Aug-25 11:00S 62°30' W 059°00'6 6.0 220 / 91006.0 -6.3 -1.7
2016-Aug-25 10:00S 62°24' W 059°00'3 2.8 280 / 91006.3 -5.7 -1.7
2016-Aug-25 09:00S 62°24' W 058°54'3 2.8 280 / 81006.9 -6.3 -1.7
2016-Aug-25 08:00S 62°24' W 058°48'8 8.2 280 / 111007.2 -6.2 -1.8
2016-Aug-25 07:00S 62°18' W 058°36'6 5.6 270 / 141007.4 -6.2 -1.8
2016-Aug-25 06:00S 62°18' W 058°24'6 6.0 270 / 121008.0 -6.1 -1.7
2016-Aug-25 05:00S 62°12' W 058°24'6 6.0 280 / 151008.4 -6.3 -1.7
2016-Aug-25 04:00S 62°18' W 058°24'6 5.6 280 / 161008.0 -7.0 -1.8
2016-Aug-25 03:00S 62°18' W 058°12'7 6.6 270 / 131008.3 -7.7 -1.8
2016-Aug-25 02:00S 62°24' W 058°06'8 8.2 270 / 151008.4 -8.0 -1.8
2016-Aug-25 01:00S 62°30' W 057°54'0 0.0 260 / 151008.8 -8.1 -1.8
2016-Aug-25 00:00S 62°30' W 057°54'3 2.8 260 / 141008.9 -8.4 -1.8
2016-Aug-24 23:00S 62°30' W 057°48'7 6.6 260 / 171008.3 -8.7 -1.8
2016-Aug-24 22:00S 62°36' W 057°42'3 2.8 270 / 161008.2 -9.0 -1.8
2016-Aug-24 21:00S 62°36' W 057°36'7 6.6 270 / 161007.9 -9.2 -1.8
2016-Aug-24 20:00S 62°42' W 057°30'6 5.5 270 / 161007.9 -9.3 -1.8
2016-Aug-24 19:00S 62°42' W 057°18'6 5.5 280 / 161008.0 -9.6 -1.8
2016-Aug-24 18:00S 62°42' W 057°06'0 0.0 280 / 161007.8 -9.9 -1.8
2016-Aug-24 17:00S 62°42' W 057°06'6 5.5 280 / 131007.9 -1.8
2016-Aug-24 16:00S 62°42' W 056°54'8 8.3 280 / 131007.8 -1.8
2016-Aug-24 15:00S 62°42' W 056°36'3 2.8 310 / 91007.8 -1.8
2016-Aug-24 14:00S 62°42' W 056°30'0 0.0 310 / 91008.0 -1.8
2016-Aug-24 13:00S 62°42' W 056°30'7 6.6 340 / 61008.0 -1.8
2016-Aug-24 12:00S 62°36' W 056°36'8 8.2 350 / 41008.2 -1.8
2016-Aug-24 11:00S 62°30' W 056°48'3 2.8 320 / 31008.2 -1.8
2016-Aug-24 10:00S 62°30' W 056°54'0 0.0 010 / 21008.1 -1.8
2016-Aug-24 09:00S 62°30' W 056°54'7 6.6 030 / 21007.9 -1.7
2016-Aug-24 08:00S 62°24' W 057°00'7 6.6 050 / 51007.7 -1.8
2016-Aug-24 07:00S 62°18' W 057°06'6 5.6 070 / 61007.4 -1.8
2016-Aug-24 06:00S 62°18' W 057°18'7 6.6 110 / 61006.9 -1.8
2016-Aug-24 05:00S 62°12' W 057°24'0 0.0 150 / 71006.6 -1.8
2016-Aug-24 04:00S 62°12' W 057°24'0 0.0 140 / 61006.2 -1.8
2016-Aug-24 03:00S 62°12' W 057°24'7 6.6 130 / 61006.0 -1.8
2016-Aug-24 02:00S 62°06' W 057°18'8 8.2 120 / 91005.6 -1.8
2016-Aug-24 01:00S 62°00' W 057°06'6 5.6 100 / 91005.1 -1.8
2016-Aug-24 00:00S 62°00' W 056°54'6 6.0 100 / 111004.4 -1.7
2016-Aug-23 23:00S 61°54' W 056°54'0 0.0 090 / 111004.2 -9.3 -1.8
2016-Aug-23 22:00S 61°54' W 056°54'7 6.6 090 / 141003.4 -8.8 -1.8
2016-Aug-23 21:00S 61°48' W 056°48'7 6.6 090 / 141002.9 -8.7 -1.8
2016-Aug-23 20:00S 61°42' W 056°42'6 6.0 100 / 151002.3 -8.2 -1.8
2016-Aug-23 19:00S 61°36' W 056°42'7 6.6 110 / 151001.8 -8.0 -1.8
2016-Aug-23 18:00S 61°30' W 056°36'8 8.3 110 / 171001.0 -7.6 -1.7
2016-Aug-23 17:00S 61°24' W 056°24'6 5.7 110 / 171000.8 -6.8 -1.5
2016-Aug-23 16:00S 61°24' W 056°12'7 6.7 110 / 201001.2 -6.6 -1.5
2016-Aug-23 15:00S 61°30' W 056°06'3 2.9 110 / 161001.4 -7.4 -1.7
2016-Aug-23 14:00S 61°30' W 056°00'0 0.0 110 / 141001.6 -7.9 -1.6
2016-Aug-23 13:00S 61°30' W 056°00'0 0.0 100 / 131001.7 -7.9 -1.6
2016-Aug-23 12:00S 61°30' W 056°00'3 2.9 110 / 111001.8 -8.2 -1.6
2016-Aug-23 11:00S 61°30' W 056°06'7 6.7 110 / 161001.0 -8.2 -1.6
2016-Aug-23 10:00S 61°24' W 056°00'7 6.7 110 / 171000.5 -7.2 -1.5
2016-Aug-23 09:00S 61°18' W 055°54'6 5.8 110 / 161001.2 -6.4 -1.6
2016-Aug-23 08:00S 61°18' W 055°42'6 5.8 120 / 141001.6 -6.7 -1.6
2016-Aug-23 07:00S 61°18' W 055°30'7 6.7 110 / 101002.1 -6.8 -1.7
2016-Aug-23 06:00S 61°24' W 055°24'6 6.0 100 / 101002.6 -7.8 -1.6
2016-Aug-23 05:00S 61°18' W 055°24'3 2.9 100 / 121002.5 -7.9 -1.7
2016-Aug-23 04:00S 61°18' W 055°30'8 8.3 110 / 141002.1 -8.0 -1.6
2016-Aug-23 03:00S 61°12' W 055°42'7 6.7 110 / 171001.5 -7.4 -1.6
2016-Aug-23 02:00S 61°06' W 055°48'7 6.7 070 / 141001.4 -5.9 -1.8
2016-Aug-23 01:00S 61°00' W 055°54'8 8.4 070 / 121001.6 -5.4 -1.6
2016-Aug-23 00:00S 60°54' W 055°42'3 2.9 060 / 121002.0 -5.4 -1.6
2016-Aug-22 23:00S 60°54' W 055°36'8 8.4 070 / 111002.3 -5.6 -1.5
2016-Aug-22 22:00S 60°48' W 055°24'1110.6 050 / 101002.8 -6.2 -1.5
2016-Aug-22 21:00S 60°54' W 055°06'3 2.9 070 / 81003.1 -6.6 -1.6
2016-Aug-22 20:00S 60°54' W 055°00'0 0.0 040 / 71003.3 -6.7 -1.5
2016-Aug-22 19:00S 60°54' W 055°00'6 6.0 050 / 71003.5 -6.9 -1.6
2016-Aug-22 18:00S 60°48' W 055°00'6 6.0 050 / 71003.7 -7.1 -1.5
2016-Aug-22 17:00S 60°42' W 055°00'0 0.0 020 / 101004.2 -7.0 -1.7
2016-Aug-22 16:00S 60°42' W 055°00'0 0.0 020 / 111004.5 -7.2 -1.6
2016-Aug-22 15:00S 60°42' W 055°00'7 6.7 030 / 111004.8 -7.0 -1.7
2016-Aug-22 14:00S 60°36' W 054°54'6 6.0 010 / 111005.0 -7.3 -1.7
2016-Aug-22 13:00S 60°30' W 054°54'7 6.7 010 / 101005.2 -7.4 -1.6
2016-Aug-22 12:00S 60°24' W 055°00'0 0.0 010 / 111005.6 -8.0 -1.3
2016-Aug-22 11:00S 60°24' W 055°00'7 6.7 030 / 91006.1 -8.4 -1.5
2016-Aug-22 10:00S 60°18' W 054°54'7 6.7 020 / 81006.5 -8.3 -0.9
2016-Aug-22 09:00S 60°12' W 055°00'3 3.0 1007.2 -8.8 -1.1
2016-Aug-22 08:00S 60°12' W 054°54'6 6.0 350 / 111007.9 -9.3 -1.0
2016-Aug-22 07:00S 60°06' W 054°54'6 6.0 010 / 81008.6 -9.1 -1.6
2016-Aug-22 06:00S 60°00' W 054°54'0 0.0 010 / 81009.1 -9.5 -1.6
2016-Aug-22 05:00S 60°00' W 054°54'8 8.5 010 / 101009.5 -9.8 -1.6
2016-Aug-22 04:00S 59°54' W 055°06'9 9.0 020 / 101009.7 -1.6
2016-Aug-22 03:00S 59°54' W 055°24'9 9.0 020 / 111009.8 -1.5
2016-Aug-22 02:00S 59°54' W 055°42'0 0.0 020 / 91010.7 -1.2
2016-Aug-22 01:00S 59°54' W 055°42'6 6.0 020 / 101011.3 -1.5
2016-Aug-22 00:00S 60°00' W 055°42'6 6.0 020 / 71012.2 -1.7
2016-Aug-21 23:00S 60°06' W 055°42'6 6.0 030 / 71012.8 -1.8
2016-Aug-21 22:00S 60°12' W 055°42'0 0.0 050 / 61013.4 -1.7
2016-Aug-21 21:00S 60°12' W 055°42'6 6.0 070 / 41013.6 -1.7
2016-Aug-21 20:00S 60°18' W 055°42'6 6.0 010 / 31013.8 -1.8
2016-Aug-21 19:00S 60°24' W 055°42'6 6.0 340 / 31014.0 -1.8
2016-Aug-21 18:00S 60°30' W 055°42'0 0.0 030 / 41014.4 -1.7
2016-Aug-21 17:00S 60°30' W 055°42'6 6.0 040 / 41014.8 -1.8
2016-Aug-21 16:00S 60°36' W 055°42'6 6.0 070 / 31015.0 -1.8
2016-Aug-21 15:00S 60°42' W 055°42'0 0.0 140 / 51015.4 -1.5
2016-Aug-21 14:00S 60°42' W 055°42'7 6.7 110 / 41015.4 -1.6
2016-Aug-21 13:00S 60°48' W 055°48'0 0.0 080 / 41015.6 -1.4
2016-Aug-21 12:00S 60°48' W 055°48'6 6.0 120 / 51015.7 -1.6
2016-Aug-21 11:00S 60°54' W 055°48'6 6.0 130 / 91016.1 -1.6
2016-Aug-21 10:00S 61°00' W 055°48'0 0.0 130 / 101016.4 -1.6
2016-Aug-21 09:00S 61°00' W 055°48'7 6.7 130 / 101016.6 -1.6
2016-Aug-21 08:00S 61°06' W 055°54'6 6.0 140 / 101016.8 -1.7
2016-Aug-21 07:00S 61°12' W 055°54'3 2.9 140 / 101017.0 -1.6
2016-Aug-21 06:00S 61°12' W 056°00'8 8.3 120 / 131017.0 -1.5
2016-Aug-21 05:00S 61°18' W 056°12'7 6.7 130 / 121017.5 -1.4
2016-Aug-21 04:00S 61°24' W 056°18'8 8.3 140 / 151018.1 -1.5
2016-Aug-21 03:00S 61°30' W 056°30'0 0.0 140 / 141018.5 -1.7
2016-Aug-21 02:00S 61°30' W 056°30'6 6.0 140 / 171018.0 -1.6
2016-Aug-21 01:00S 61°24' W 056°30'7 6.7 140 / 191017.0 -1.5
2016-Aug-21 00:00S 61°18' W 056°24'0 0.0 150 / 261016.1 -1.3
2016-Aug-20 23:00S 61°18' W 056°24'6 6.0 150 / 241016.2 -1.4
2016-Aug-20 22:00S 61°12' W 056°24'0 0.0 160 / 251015.8 -1.2
2016-Aug-20 21:00S 61°12' W 056°24'6 6.0 150 / 271015.0 -1.1
2016-Aug-20 20:00S 61°06' W 056°24'1212.0 150 / 331013.0 -0.9
2016-Aug-20 19:00S 60°54' W 056°24'0 0.0 160 / 311014.1 -1.3
2016-Aug-20 18:00S 60°54' W 056°24'0 0.0 170 / 241014.6 -1.7
2016-Aug-20 17:00S 60°54' W 056°24'6 6.0 160 / 241013.5 -1.7
2016-Aug-20 16:00S 60°48' W 056°24'6 6.0 140 / 291012.1 -1.8
2016-Aug-20 15:00S 60°42' W 056°24'0 0.0 140 / 301012.5 -1.7
2016-Aug-20 14:00S 60°42' W 056°24'6 6.0 150 / 301012.4 -1.7
2016-Aug-20 13:00S 60°36' W 056°24'6 6.0 140 / 311009.8 -1.7
2016-Aug-20 12:00S 60°30' W 056°24'6 6.0 140 / 321009.2 -1.8
2016-Aug-20 11:00S 60°24' W 056°24'3 3.0 160 / 291010.4 -1.8
2016-Aug-20 10:00S 60°24' W 056°30'3 3.0 150 / 281009.8 -1.8
2016-Aug-20 09:00S 60°24' W 056°24'6 6.0 150 / 311007.6 -1.8
2016-Aug-20 08:00S 60°18' W 056°24'6 6.0 150 / 261006.4 -1.8
2016-Aug-20 07:00S 60°12' W 056°24'3 3.0 120 / 171006.1 -1.7
2016-Aug-20 06:00S 60°12' W 056°30'3 3.0 110 / 161005.8 -1.7
2016-Aug-20 05:00S 60°12' W 056°24'1212.0 110 / 221003.8 -1.7
2016-Aug-20 04:00S 60°00' W 056°24'0 0.0 110 / 251002.4 -1.6
2016-Aug-20 03:00S 60°00' W 056°24'0 0.0 110 / 281001.3 -1.5
2016-Aug-20 02:00S 60°00' W 056°24'3 3.0 110 / 271000.9 -1.1
2016-Aug-20 01:00S 60°00' W 056°30'8 8.5 100 / 261000.3 -1.0
2016-Aug-20 00:00S 59°54' W 056°42'3 3.0 080 / 26999.2 -9.1 -0.9
2016-Aug-19 23:00S 59°54' W 056°48'3 3.0 070 / 22998.8 -7.5 -1.1
2016-Aug-19 22:00S 59°54' W 056°54'9 9.0 050 / 12998.7 -6.6 -1.2
2016-Aug-19 21:00S 59°54' W 057°12'6 6.0 050 / 14998.2 -6.1 -1.5
2016-Aug-19 20:00S 59°54' W 057°24'6 6.0 040 / 12998.4 -6.1 -1.3
2016-Aug-19 19:00S 60°00' W 057°24'0 0.0 040 / 11998.8 -6.5 -1.3
2016-Aug-19 18:00S 60°00' W 057°24'1212.0 070 / 9999.3 -7.2 -1.4
2016-Aug-19 17:00S 60°12' W 057°24'3 3.0 080 / 5999.5 -7.5 -1.5
2016-Aug-19 16:00S 60°12' W 057°30'3 3.0 090 / 1999.7 -7.2 -1.5
2016-Aug-19 15:00S 60°12' W 057°24'1212.0 210 / 11000.0 -7.4 -1.6
2016-Aug-19 14:00S 60°24' W 057°24'6 6.0 170 / 31000.0 -8.1 -1.7
2016-Aug-19 13:00S 60°30' W 057°24'3 3.0 170 / 6999.8 -8.4 -1.6
2016-Aug-19 12:00S 60°30' W 057°30'6 6.0 160 / 5999.9 -8.5 -1.7
2016-Aug-19 11:00S 60°36' W 057°30'6 6.0 170 / 8999.7 -8.5 -1.7
2016-Aug-19 10:00S 60°42' W 057°30'0 0.0 190 / 9999.4 -8.8 -1.7
2016-Aug-19 09:00S 60°42' W 057°30'7 6.7 180 / 13998.9 -8.2 -1.7
2016-Aug-19 08:00S 60°48' W 057°24'6 6.0 180 / 8998.6 -7.7 -1.8
2016-Aug-19 07:00S 60°54' W 057°24'0 0.0 190 / 7998.7 -8.1 -1.7
2016-Aug-19 06:00S 60°54' W 057°24'7 6.7 170 / 8998.7 -8.1 -1.7
2016-Aug-19 05:00S 61°00' W 057°30'1212.0 160 / 9998.5 -8.2 -1.8
2016-Aug-19 04:00S 61°12' W 057°30'3 2.9 140 / 7998.5 -8.3 -1.7
2016-Aug-19 03:00S 61°12' W 057°24'0 0.0 150 / 6998.3 -8.2 -1.7
2016-Aug-19 02:00S 61°12' W 057°24'1212.3 150 / 8998.3 -8.3 -1.7
2016-Aug-19 01:00S 61°24' W 057°30'7 6.7 150 / 6998.6 -8.5 -1.5
2016-Aug-19 00:00S 61°30' W 057°24'7 6.7 150 / 6998.6 -9.0 -1.4
2016-Aug-18 23:00S 61°24' W 057°30'8 8.3 150 / 6998.7 -8.5 -1.4
2016-Aug-18 22:00S 61°30' W 057°42'6 5.7 170 / 6998.7 -8.5 -1.5
2016-Aug-18 21:00S 61°30' W 057°54'9 8.6 120 / 4998.6 -8.1 -1.7
2016-Aug-18 20:00S 61°30' W 058°12'6 5.7 180 / 2998.4 -7.8 -1.7
2016-Aug-18 19:00S 61°30' W 058°24'6 6.0 220 / 3998.4 -7.9 -1.6
2016-Aug-18 18:00S 61°24' W 058°24'8 8.3 210 / 5998.4 -7.7 -1.6
2016-Aug-18 17:00S 61°30' W 058°36'1111.5 220 / 6998.6 -7.7 -1.6
2016-Aug-18 16:00S 61°30' W 059°00'9 8.6 230 / 9999.1 -8.2 -1.7
2016-Aug-18 15:00S 61°30' W 059°18'3 2.9 230 / 7999.4 -8.4 -1.7
2016-Aug-18 14:00S 61°30' W 059°24'0 0.0 240 / 11999.5 -8.3 -1.6
2016-Aug-18 13:00S 61°30' W 059°24'24 8.0 250 / 12999.6 -8.4 -1.7
2016-Aug-18 10:00S 61°54' W 059°24'6 5.7 250 / 8999.6 -8.6 -1.7
2016-Aug-18 09:00S 61°54' W 059°36'8 8.2 240 / 11999.8 -8.6 -1.7
2016-Aug-18 08:00S 61°48' W 059°48'8 8.3 230 / 121000.0 -8.6 -1.7
2016-Aug-18 07:00S 61°42' W 060°00'0 0.0 230 / 131000.1 -8.2 -1.6
2016-Aug-18 06:00S 61°42' W 060°00'7 6.6 230 / 131000.4 -8.2 -1.7
2016-Aug-18 05:00S 61°36' W 060°06'8 8.3 230 / 151000.6 -8.1 -1.8
2016-Aug-18 04:00S 61°30' W 060°18'3 2.9 240 / 141000.9 -8.4 -1.8
2016-Aug-18 03:00S 61°30' W 060°24'7 6.7 240 / 131001.3 -8.8 -1.8
2016-Aug-18 02:00S 61°24' W 060°30'3 2.9 240 / 131001.6 -9.0 -1.8
2016-Aug-18 01:00S 61°24' W 060°36'15 7.4 230 / 141001.9 -9.4 -1.8
2016-Aug-17 23:00S 61°12' W 060°54'0 0.0 230 / 151002.0 -9.0 -1.8
2016-Aug-17 22:00S 61°12' W 060°54'3 2.9 240 / 131002.2 -9.7 -1.8
2016-Aug-17 21:00S 61°12' W 061°00'8 8.3 230 / 121001.8 -9.0 -1.8
2016-Aug-17 20:00S 61°18' W 061°12'8 8.3 240 / 131001.5 -8.3 -1.8
2016-Aug-17 19:00S 61°24' W 061°24'3 2.9 230 / 131001.6 -8.1 -1.8
2016-Aug-17 18:00S 61°24' W 061°30'0 0.0 220 / 111001.6 -9.4 -1.7
2016-Aug-17 17:00S 61°24' W 061°30'7 6.7 230 / 111001.5 -9.5 -1.7
2016-Aug-17 16:00S 61°30' W 061°24'3 2.9 240 / 111001.1 -9.6 -1.8
2016-Aug-17 15:00S 61°30' W 061°18'8 8.3 240 / 111001.0 -9.3 -1.8
2016-Aug-17 14:00S 61°36' W 061°06'   240 / 101000.8 -9.3 -1.8
Track history (hours):
 
Tides and Currents Weather Stations Pressure Air Temp Water Temp Dewpoint Dewpoint Depression Visibility Wind Speed Wind Dir Waves Ship Positions

Oceanographic research ship Nathaniel B. Palmer (USA)

Contact: Ethan Norris, ethan.norris.contractor@usap.gov

Detailed information on ship capabilities available from University of Delaware's Ocean Information Center and ARCUS's ALIAS (Arctic Logistics Information and Support) project.

Owner: OFFSHORE SERVICE VESSELS, GALLIANO, LA. More information available from US FCC via Universal Licensing System and Coast Guard Vessel Documentation Center.

Last reported at 2016-Aug-27 14:00 UTC. Time now 2016-Aug-27 15:13 UTC.
Position S 62°06' W 062°30'.

Type: Other ship. MMSI: 366610000.

Wind at 10 knots

Barometer 1009.9 mb
Air temperature -4.4 ° C
Water temperature -1.8 ° C

Date/timePositionNaut miles runAvg speedWind from/ knotsBaromVisibWave heightAir tempDewpointWater temp
2016-Aug-27 14:00S 62°06' W 062°30'7 6.6 1009.9 -4.4 -1.8
2016-Aug-27 13:00S 62°12' W 062°24'6 6.0 010 / 101010.0 -5.2 -1.7
2016-Aug-27 12:00S 62°18' W 062°24'1212.3 010 / 81010.3 -5.2 -1.7
2016-Aug-27 11:00S 62°30' W 062°18'7 6.6 160 / 111010.5 -5.5 -1.7
2016-Aug-27 10:00S 62°36' W 062°12'7 6.6 190 / 81010.5 -6.2 -1.7
2016-Aug-27 09:00S 62°42' W 062°06'8 8.1 130 / 71010.6 -6.4 -1.7
2016-Aug-27 08:00S 62°48' W 061°54'5 5.5 310 / 101010.4 -6.6 -1.7
2016-Aug-27 07:00S 62°48' W 061°42'8 8.1 310 / 141010.3 -6.2 -1.6
2016-Aug-27 06:00S 62°54' W 061°30'8 8.2 320 / 111010.1 -6.0 -1.7
2016-Aug-27 05:00S 62°54' W 061°12'1010.2 280 / 121009.7 -5.4 -1.7
2016-Aug-27 04:00S 62°48' W 060°54'8 8.1 270 / 111009.5 -5.3 -1.7
2016-Aug-27 03:00S 62°42' W 060°42'0 0.0 260 / 121009.2 -4.8 -1.6
2016-Aug-27 02:00S 62°42' W 060°42'6 5.5 250 / 151008.8 -4.7 -1.6
2016-Aug-27 01:00S 62°42' W 060°30'8 8.1 260 / 231007.2 -4.4 -1.6
2016-Aug-27 00:00S 62°48' W 060°18'8 8.1 260 / 221006.2 -3.7 -1.6
2016-Aug-26 23:00S 62°54' W 060°06'5 5.5 240 / 161006.8 -3.6 -1.8
2016-Aug-26 22:00S 62°54' W 059°54'0 0.0 260 / 291005.8 -3.4 -1.6
2016-Aug-26 21:00S 62°54' W 059°54'7 6.6 250 / 241005.6 -3.3 -1.7
2016-Aug-26 20:00S 63°00' W 059°48'7 6.6 250 / 281003.4 -3.4 -1.7
2016-Aug-26 19:00S 63°06' W 059°42'8 8.1 240 / 211003.2 -3.7 -1.7
2016-Aug-26 18:00S 63°12' W 059°30'3 2.7 250 / 301001.9 -3.9 -1.7
2016-Aug-26 17:00S 63°12' W 059°24'3 2.7 250 / 261001.9 -3.9 -1.7
2016-Aug-26 16:00S 63°12' W 059°30'6 6.0 250 / 231001.9 -4.8 -1.8
2016-Aug-26 15:00S 63°06' W 059°30'1212.3 250 / 251001.8 -5.4 -1.6
2016-Aug-26 14:00S 62°54' W 059°36'6 6.0 260 / 211002.0 -5.8 -1.7
2016-Aug-26 13:00S 62°48' W 059°36'6 6.0 250 / 211001.5 -4.6 -1.7
2016-Aug-26 12:00S 62°42' W 059°36'6 6.0 250 / 191000.9 -3.3 -1.7
2016-Aug-26 11:00S 62°36' W 059°36'3 2.8 270 / 121000.5 -2.7 -1.6
2016-Aug-26 10:00S 62°36' W 059°42'0 0.0 310 / 71000.3 -3.0 -1.6
2016-Aug-26 09:00S 62°36' W 059°42'8 8.1 290 / 11999.8 -3.3 -1.7
2016-Aug-26 08:00S 62°42' W 059°30'7 6.6 320 / 15999.6 -3.6 -1.7
2016-Aug-26 07:00S 62°48' W 059°24'5 5.5 330 / 111000.2 -4.4 -1.7
2016-Aug-26 06:00S 62°48' W 059°12'8 8.1 300 / 61000.9 -4.6 -1.8
2016-Aug-26 05:00S 62°54' W 059°00'7 6.6 290 / 61001.3 -5.0 -1.8
2016-Aug-26 04:00S 63°00' W 058°54'0 0.0 250 / 71001.8 -5.9 -1.7
2016-Aug-26 03:00S 63°00' W 058°54'3 2.7 250 / 81002.0 -6.1 -1.8
2016-Aug-26 02:00S 63°00' W 058°48'5 5.4 250 / 141001.8 -6.7 -1.8
2016-Aug-26 01:00S 63°00' W 058°36'7 6.6 250 / 151002.1 -7.0 -1.8
2016-Aug-26 00:00S 63°06' W 058°30'3 2.7 260 / 161002.7 -7.3 -1.8
2016-Aug-25 23:00S 63°06' W 058°24'7 6.6 250 / 141003.2 -7.2 -1.8
2016-Aug-25 22:00S 63°00' W 058°18'5 5.4 260 / 161003.3 -7.2 -1.8
2016-Aug-25 21:00S 63°00' W 058°06'5 5.4 250 / 141003.2 -7.1 -1.8
2016-Aug-25 20:00S 63°00' W 057°54'6 6.0 260 / 141003.5 -7.1 -1.8
2016-Aug-25 19:00S 62°54' W 057°54'3 2.7 250 / 141003.8 -7.3 -1.8
2016-Aug-25 18:00S 62°54' W 058°00'8 8.1 250 / 141003.9 -6.9 -1.8
2016-Aug-25 17:00S 62°48' W 058°12'8 8.1 250 / 101004.5 -6.8 -1.8
2016-Aug-25 16:00S 62°42' W 058°24'0 0.0 250 / 81004.9 -6.9 -1.8
2016-Aug-25 15:00S 62°42' W 058°24'3 2.8 250 / 71005.3 -7.0 -1.7
2016-Aug-25 14:00S 62°42' W 058°30'7 6.6 240 / 81005.6 -7.3 -1.7
2016-Aug-25 13:00S 62°36' W 058°36'8 8.2 220 / 81005.7 -7.1 -1.7
2016-Aug-25 12:00S 62°30' W 058°48'6 5.5 220 / 81006.0 -6.7 -1.8
2016-Aug-25 11:00S 62°30' W 059°00'6 6.0 220 / 91006.0 -6.3 -1.7
2016-Aug-25 10:00S 62°24' W 059°00'3 2.8 280 / 91006.3 -5.7 -1.7
2016-Aug-25 09:00S 62°24' W 058°54'3 2.8 280 / 81006.9 -6.3 -1.7
2016-Aug-25 08:00S 62°24' W 058°48'8 8.2 280 / 111007.2 -6.2 -1.8
2016-Aug-25 07:00S 62°18' W 058°36'6 5.6 270 / 141007.4 -6.2 -1.8
2016-Aug-25 06:00S 62°18' W 058°24'6 6.0 270 / 121008.0 -6.1 -1.7
2016-Aug-25 05:00S 62°12' W 058°24'6 6.0 280 / 151008.4 -6.3 -1.7
2016-Aug-25 04:00S 62°18' W 058°24'6 5.6 280 / 161008.0 -7.0 -1.8
2016-Aug-25 03:00S 62°18' W 058°12'7 6.6 270 / 131008.3 -7.7 -1.8
2016-Aug-25 02:00S 62°24' W 058°06'8 8.2 270 / 151008.4 -8.0 -1.8
2016-Aug-25 01:00S 62°30' W 057°54'0 0.0 260 / 151008.8 -8.1 -1.8
2016-Aug-25 00:00S 62°30' W 057°54'3 2.8 260 / 141008.9 -8.4 -1.8
2016-Aug-24 23:00S 62°30' W 057°48'7 6.6 260 / 171008.3 -8.7 -1.8
2016-Aug-24 22:00S 62°36' W 057°42'3 2.8 270 / 161008.2 -9.0 -1.8
2016-Aug-24 21:00S 62°36' W 057°36'7 6.6 270 / 161007.9 -9.2 -1.8
2016-Aug-24 20:00S 62°42' W 057°30'6 5.5 270 / 161007.9 -9.3 -1.8
2016-Aug-24 19:00S 62°42' W 057°18'6 5.5 280 / 161008.0 -9.6 -1.8
2016-Aug-24 18:00S 62°42' W 057°06'0 0.0 280 / 161007.8 -9.9 -1.8
2016-Aug-24 17:00S 62°42' W 057°06'6 5.5 280 / 131007.9 -1.8
2016-Aug-24 16:00S 62°42' W 056°54'8 8.3 280 / 131007.8 -1.8
2016-Aug-24 15:00S 62°42' W 056°36'3 2.8 310 / 91007.8 -1.8
2016-Aug-24 14:00S 62°42' W 056°30'0 0.0 310 / 91008.0 -1.8
2016-Aug-24 13:00S 62°42' W 056°30'7 6.6 340 / 61008.0 -1.8
2016-Aug-24 12:00S 62°36' W 056°36'8 8.2 350 / 41008.2 -1.8
2016-Aug-24 11:00S 62°30' W 056°48'3 2.8 320 / 31008.2 -1.8
2016-Aug-24 10:00S 62°30' W 056°54'0 0.0 010 / 21008.1 -1.8
2016-Aug-24 09:00S 62°30' W 056°54'7 6.6 030 / 21007.9 -1.7
2016-Aug-24 08:00S 62°24' W 057°00'7 6.6 050 / 51007.7 -1.8
2016-Aug-24 07:00S 62°18' W 057°06'6 5.6 070 / 61007.4 -1.8
2016-Aug-24 06:00S 62°18' W 057°18'7 6.6 110 / 61006.9 -1.8
2016-Aug-24 05:00S 62°12' W 057°24'0 0.0 150 / 71006.6 -1.8
2016-Aug-24 04:00S 62°12' W 057°24'0 0.0 140 / 61006.2 -1.8
2016-Aug-24 03:00S 62°12' W 057°24'7 6.6 130 / 61006.0 -1.8
2016-Aug-24 02:00S 62°06' W 057°18'8 8.2 120 / 91005.6 -1.8
2016-Aug-24 01:00S 62°00' W 057°06'6 5.6 100 / 91005.1 -1.8
2016-Aug-24 00:00S 62°00' W 056°54'6 6.0 100 / 111004.4 -1.7
2016-Aug-23 23:00S 61°54' W 056°54'0 0.0 090 / 111004.2 -9.3 -1.8
2016-Aug-23 22:00S 61°54' W 056°54'7 6.6 090 / 141003.4 -8.8 -1.8
2016-Aug-23 21:00S 61°48' W 056°48'7 6.6 090 / 141002.9 -8.7 -1.8
2016-Aug-23 20:00S 61°42' W 056°42'6 6.0 100 / 151002.3 -8.2 -1.8
2016-Aug-23 19:00S 61°36' W 056°42'7 6.6 110 / 151001.8 -8.0 -1.8
2016-Aug-23 18:00S 61°30' W 056°36'8 8.3 110 / 171001.0 -7.6 -1.7
2016-Aug-23 17:00S 61°24' W 056°24'6 5.7 110 / 171000.8 -6.8 -1.5
2016-Aug-23 16:00S 61°24' W 056°12'7 6.7 110 / 201001.2 -6.6 -1.5
2016-Aug-23 15:00S 61°30' W 056°06'3 2.9 110 / 161001.4 -7.4 -1.7
2016-Aug-23 14:00S 61°30' W 056°00'0 0.0 110 / 141001.6 -7.9 -1.6
2016-Aug-23 13:00S 61°30' W 056°00'0 0.0 100 / 131001.7 -7.9 -1.6
2016-Aug-23 12:00S 61°30' W 056°00'3 2.9 110 / 111001.8 -8.2 -1.6
2016-Aug-23 11:00S 61°30' W 056°06'7 6.7 110 / 161001.0 -8.2 -1.6
2016-Aug-23 10:00S 61°24' W 056°00'7 6.7 110 / 171000.5 -7.2 -1.5
2016-Aug-23 09:00S 61°18' W 055°54'6 5.8 110 / 161001.2 -6.4 -1.6
2016-Aug-23 08:00S 61°18' W 055°42'6 5.8 120 / 141001.6 -6.7 -1.6
2016-Aug-23 07:00S 61°18' W 055°30'7 6.7 110 / 101002.1 -6.8 -1.7
2016-Aug-23 06:00S 61°24' W 055°24'6 6.0 100 / 101002.6 -7.8 -1.6
2016-Aug-23 05:00S 61°18' W 055°24'3 2.9 100 / 121002.5 -7.9 -1.7
2016-Aug-23 04:00S 61°18' W 055°30'8 8.3 110 / 141002.1 -8.0 -1.6
2016-Aug-23 03:00S 61°12' W 055°42'7 6.7 110 / 171001.5 -7.4 -1.6
2016-Aug-23 02:00S 61°06' W 055°48'7 6.7 070 / 141001.4 -5.9 -1.8
2016-Aug-23 01:00S 61°00' W 055°54'8 8.4 070 / 121001.6 -5.4 -1.6
2016-Aug-23 00:00S 60°54' W 055°42'3 2.9 060 / 121002.0 -5.4 -1.6
2016-Aug-22 23:00S 60°54' W 055°36'8 8.4 070 / 111002.3 -5.6 -1.5
2016-Aug-22 22:00S 60°48' W 055°24'1110.6 050 / 101002.8 -6.2 -1.5
2016-Aug-22 21:00S 60°54' W 055°06'3 2.9 070 / 81003.1 -6.6 -1.6
2016-Aug-22 20:00S 60°54' W 055°00'0 0.0 040 / 71003.3 -6.7 -1.5
2016-Aug-22 19:00S 60°54' W 055°00'6 6.0 050 / 71003.5 -6.9 -1.6
2016-Aug-22 18:00S 60°48' W 055°00'6 6.0 050 / 71003.7 -7.1 -1.5
2016-Aug-22 17:00S 60°42' W 055°00'0 0.0 020 / 101004.2 -7.0 -1.7
2016-Aug-22 16:00S 60°42' W 055°00'0 0.0 020 / 111004.5 -7.2 -1.6
2016-Aug-22 15:00S 60°42' W 055°00'7 6.7 030 / 111004.8 -7.0 -1.7
2016-Aug-22 14:00S 60°36' W 054°54'6 6.0 010 / 111005.0 -7.3 -1.7
2016-Aug-22 13:00S 60°30' W 054°54'7 6.7 010 / 101005.2 -7.4 -1.6
2016-Aug-22 12:00S 60°24' W 055°00'0 0.0 010 / 111005.6 -8.0 -1.3
2016-Aug-22 11:00S 60°24' W 055°00'7 6.7 030 / 91006.1 -8.4 -1.5
2016-Aug-22 10:00S 60°18' W 054°54'7 6.7 020 / 81006.5 -8.3 -0.9
2016-Aug-22 09:00S 60°12' W 055°00'3 3.0 1007.2 -8.8 -1.1
2016-Aug-22 08:00S 60°12' W 054°54'6 6.0 350 / 111007.9 -9.3 -1.0
2016-Aug-22 07:00S 60°06' W 054°54'6 6.0 010 / 81008.6 -9.1 -1.6
2016-Aug-22 06:00S 60°00' W 054°54'0 0.0 010 / 81009.1 -9.5 -1.6
2016-Aug-22 05:00S 60°00' W 054°54'8 8.5 010 / 101009.5 -9.8 -1.6
2016-Aug-22 04:00S 59°54' W 055°06'9 9.0 020 / 101009.7 -1.6
2016-Aug-22 03:00S 59°54' W 055°24'9 9.0 020 / 111009.8 -1.5
2016-Aug-22 02:00S 59°54' W 055°42'0 0.0 020 / 91010.7 -1.2
2016-Aug-22 01:00S 59°54' W 055°42'6 6.0 020 / 101011.3 -1.5
2016-Aug-22 00:00S 60°00' W 055°42'6 6.0 020 / 71012.2 -1.7
2016-Aug-21 23:00S 60°06' W 055°42'6 6.0 030 / 71012.8 -1.8
2016-Aug-21 22:00S 60°12' W 055°42'0 0.0 050 / 61013.4 -1.7
2016-Aug-21 21:00S 60°12' W 055°42'6 6.0 070 / 41013.6 -1.7
2016-Aug-21 20:00S 60°18' W 055°42'6 6.0 010 / 31013.8 -1.8
2016-Aug-21 19:00S 60°24' W 055°42'6 6.0 340 / 31014.0 -1.8
2016-Aug-21 18:00S 60°30' W 055°42'0 0.0 030 / 41014.4 -1.7
2016-Aug-21 17:00S 60°30' W 055°42'6 6.0 040 / 41014.8 -1.8
2016-Aug-21 16:00S 60°36' W 055°42'6 6.0 070 / 31015.0 -1.8
2016-Aug-21 15:00S 60°42' W 055°42'0 0.0 140 / 51015.4 -1.5
2016-Aug-21 14:00S 60°42' W 055°42'7 6.7 110 / 41015.4 -1.6
2016-Aug-21 13:00S 60°48' W 055°48'0 0.0 080 / 41015.6 -1.4
2016-Aug-21 12:00S 60°48' W 055°48'6 6.0 120 / 51015.7 -1.6
2016-Aug-21 11:00S 60°54' W 055°48'6 6.0 130 / 91016.1 -1.6
2016-Aug-21 10:00S 61°00' W 055°48'0 0.0 130 / 101016.4 -1.6
2016-Aug-21 09:00S 61°00' W 055°48'7 6.7 130 / 101016.6 -1.6
2016-Aug-21 08:00S 61°06' W 055°54'6 6.0 140 / 101016.8 -1.7
2016-Aug-21 07:00S 61°12' W 055°54'3 2.9 140 / 101017.0 -1.6
2016-Aug-21 06:00S 61°12' W 056°00'8 8.3 120 / 131017.0 -1.5
2016-Aug-21 05:00S 61°18' W 056°12'7 6.7 130 / 121017.5 -1.4
2016-Aug-21 04:00S 61°24' W 056°18'8 8.3 140 / 151018.1 -1.5
2016-Aug-21 03:00S 61°30' W 056°30'0 0.0 140 / 141018.5 -1.7
2016-Aug-21 02:00S 61°30' W 056°30'6 6.0 140 / 171018.0 -1.6
2016-Aug-21 01:00S 61°24' W 056°30'7 6.7 140 / 191017.0 -1.5
2016-Aug-21 00:00S 61°18' W 056°24'0 0.0 150 / 261016.1 -1.3
2016-Aug-20 23:00S 61°18' W 056°24'6 6.0 150 / 241016.2 -1.4
2016-Aug-20 22:00S 61°12' W 056°24'0 0.0 160 / 251015.8 -1.2
2016-Aug-20 21:00S 61°12' W 056°24'6 6.0 150 / 271015.0 -1.1
2016-Aug-20 20:00S 61°06' W 056°24'1212.0 150 / 331013.0 -0.9
2016-Aug-20 19:00S 60°54' W 056°24'0 0.0 160 / 311014.1 -1.3
2016-Aug-20 18:00S 60°54' W 056°24'0 0.0 170 / 241014.6 -1.7
2016-Aug-20 17:00S 60°54' W 056°24'6 6.0 160 / 241013.5 -1.7
2016-Aug-20 16:00S 60°48' W 056°24'6 6.0 140 / 291012.1 -1.8
2016-Aug-20 15:00S 60°42' W 056°24'0 0.0 140 / 301012.5 -1.7
2016-Aug-20 14:00S 60°42' W 056°24'6 6.0 150 / 301012.4 -1.7
2016-Aug-20 13:00S 60°36' W 056°24'6 6.0 140 / 311009.8 -1.7
2016-Aug-20 12:00S 60°30' W 056°24'6 6.0 140 / 321009.2 -1.8
2016-Aug-20 11:00S 60°24' W 056°24'3 3.0 160 / 291010.4 -1.8
2016-Aug-20 10:00S 60°24' W 056°30'3 3.0 150 / 281009.8 -1.8
2016-Aug-20 09:00S 60°24' W 056°24'6 6.0 150 / 311007.6 -1.8
2016-Aug-20 08:00S 60°18' W 056°24'6 6.0 150 / 261006.4 -1.8
2016-Aug-20 07:00S 60°12' W 056°24'3 3.0 120 / 171006.1 -1.7
2016-Aug-20 06:00S 60°12' W 056°30'3 3.0 110 / 161005.8 -1.7
2016-Aug-20 05:00S 60°12' W 056°24'1212.0 110 / 221003.8 -1.7
2016-Aug-20 04:00S 60°00' W 056°24'0 0.0 110 / 251002.4 -1.6
2016-Aug-20 03:00S 60°00' W 056°24'0 0.0 110 / 281001.3 -1.5
2016-Aug-20 02:00S 60°00' W 056°24'3 3.0 110 / 271000.9 -1.1
2016-Aug-20 01:00S 60°00' W 056°30'8 8.5 100 / 261000.3 -1.0
2016-Aug-20 00:00S 59°54' W 056°42'3 3.0 080 / 26999.2 -9.1 -0.9
2016-Aug-19 23:00S 59°54' W 056°48'3 3.0 070 / 22998.8 -7.5 -1.1
2016-Aug-19 22:00S 59°54' W 056°54'9 9.0 050 / 12998.7 -6.6 -1.2
2016-Aug-19 21:00S 59°54' W 057°12'6 6.0 050 / 14998.2 -6.1 -1.5
2016-Aug-19 20:00S 59°54' W 057°24'6 6.0 040 / 12998.4 -6.1 -1.3
2016-Aug-19 19:00S 60°00' W 057°24'0 0.0 040 / 11998.8 -6.5 -1.3
2016-Aug-19 18:00S 60°00' W 057°24'1212.0 070 / 9999.3 -7.2 -1.4
2016-Aug-19 17:00S 60°12' W 057°24'3 3.0 080 / 5999.5 -7.5 -1.5
2016-Aug-19 16:00S 60°12' W 057°30'3 3.0 090 / 1999.7 -7.2 -1.5
2016-Aug-19 15:00S 60°12' W 057°24'1212.0 210 / 11000.0 -7.4 -1.6
2016-Aug-19 14:00S 60°24' W 057°24'6 6.0 170 / 31000.0 -8.1 -1.7
2016-Aug-19 13:00S 60°30' W 057°24'3 3.0 170 / 6999.8 -8.4 -1.6
2016-Aug-19 12:00S 60°30' W 057°30'6 6.0 160 / 5999.9 -8.5 -1.7
2016-Aug-19 11:00S 60°36' W 057°30'6 6.0 170 / 8999.7 -8.5 -1.7
2016-Aug-19 10:00S 60°42' W 057°30'0 0.0 190 / 9999.4 -8.8 -1.7
2016-Aug-19 09:00S 60°42' W 057°30'7 6.7 180 / 13998.9 -8.2 -1.7
2016-Aug-19 08:00S 60°48' W 057°24'6 6.0 180 / 8998.6 -7.7 -1.8
2016-Aug-19 07:00S 60°54' W 057°24'0 0.0 190 / 7998.7 -8.1 -1.7
2016-Aug-19 06:00S 60°54' W 057°24'7 6.7 170 / 8998.7 -8.1 -1.7
2016-Aug-19 05:00S 61°00' W 057°30'1212.0 160 / 9998.5 -8.2 -1.8
2016-Aug-19 04:00S 61°12' W 057°30'3 2.9 140 / 7998.5 -8.3 -1.7
2016-Aug-19 03:00S 61°12' W 057°24'0 0.0 150 / 6998.3 -8.2 -1.7
2016-Aug-19 02:00S 61°12' W 057°24'1212.3 150 / 8998.3 -8.3 -1.7
2016-Aug-19 01:00S 61°24' W 057°30'7 6.7 150 / 6998.6 -8.5 -1.5
2016-Aug-19 00:00S 61°30' W 057°24'7 6.7 150 / 6998.6 -9.0 -1.4
2016-Aug-18 23:00S 61°24' W 057°30'8 8.3 150 / 6998.7 -8.5 -1.4
2016-Aug-18 22:00S 61°30' W 057°42'6 5.7 170 / 6998.7 -8.5 -1.5
2016-Aug-18 21:00S 61°30' W 057°54'9 8.6 120 / 4998.6 -8.1 -1.7
2016-Aug-18 20:00S 61°30' W 058°12'6 5.7 180 / 2998.4 -7.8 -1.7
2016-Aug-18 19:00S 61°30' W 058°24'6 6.0 220 / 3998.4 -7.9 -1.6
2016-Aug-18 18:00S 61°24' W 058°24'8 8.3 210 / 5998.4 -7.7 -1.6
2016-Aug-18 17:00S 61°30' W 058°36'1111.5 220 / 6998.6 -7.7 -1.6
2016-Aug-18 16:00S 61°30' W 059°00'9 8.6 230 / 9999.1 -8.2 -1.7
2016-Aug-18 15:00S 61°30' W 059°18'3 2.9 230 / 7999.4 -8.4 -1.7
2016-Aug-18 14:00S 61°30' W 059°24'0 0.0 240 / 11999.5 -8.3 -1.6
2016-Aug-18 13:00S 61°30' W 059°24'24 8.0 250 / 12999.6 -8.4 -1.7
2016-Aug-18 10:00S 61°54' W 059°24'6 5.7 250 / 8999.6 -8.6 -1.7
2016-Aug-18 09:00S 61°54' W 059°36'8 8.2 240 / 11999.8 -8.6 -1.7
2016-Aug-18 08:00S 61°48' W 059°48'8 8.3 230 / 121000.0 -8.6 -1.7
2016-Aug-18 07:00S 61°42' W 060°00'0 0.0 230 / 131000.1 -8.2 -1.6
2016-Aug-18 06:00S 61°42' W 060°00'7 6.6 230 / 131000.4 -8.2 -1.7
2016-Aug-18 05:00S 61°36' W 060°06'8 8.3 230 / 151000.6 -8.1 -1.8
2016-Aug-18 04:00S 61°30' W 060°18'3 2.9 240 / 141000.9 -8.4 -1.8
2016-Aug-18 03:00S 61°30' W 060°24'7 6.7 240 / 131001.3 -8.8 -1.8
2016-Aug-18 02:00S 61°24' W 060°30'3 2.9 240 / 131001.6 -9.0 -1.8
2016-Aug-18 01:00S 61°24' W 060°36'15 7.4 230 / 141001.9 -9.4 -1.8
2016-Aug-17 23:00S 61°12' W 060°54'0 0.0 230 / 151002.0 -9.0 -1.8
2016-Aug-17 22:00S 61°12' W 060°54'3 2.9 240 / 131002.2 -9.7 -1.8
2016-Aug-17 21:00S 61°12' W 061°00'8 8.3 230 / 121001.8 -9.0 -1.8
2016-Aug-17 20:00S 61°18' W 061°12'8 8.3 240 / 131001.5 -8.3 -1.8
2016-Aug-17 19:00S 61°24' W 061°24'3 2.9 230 / 131001.6 -8.1 -1.8
2016-Aug-17 18:00S 61°24' W 061°30'0 0.0 220 / 111001.6 -9.4 -1.7
2016-Aug-17 17:00S 61°24' W 061°30'7 6.7 230 / 111001.5 -9.5 -1.7
2016-Aug-17 16:00S 61°30' W 061°24'3 2.9 240 / 111001.1 -9.6 -1.8
2016-Aug-17 15:00S 61°30' W 061°18'8 8.3 240 / 111001.0 -9.3 -1.8
2016-Aug-17 14:00S 61°36' W 061°06'   240 / 101000.8 -9.3 -1.8

Dump ship's entire track history